createdAt,value
2022-10-10T00:01:26.359Z,53.34
2022-10-10T00:06:30.466Z,52.98
2022-10-10T00:11:31.274Z,52.35
2022-10-10T00:16:28.338Z,51.84
2022-10-10T00:21:25.283Z,51.98
2022-10-10T00:26:22.368Z,51.98
2022-10-10T00:31:19.854Z,52.06
2022-10-10T00:36:19.833Z,52.26
2022-10-10T00:41:22.211Z,52.69
2022-10-10T00:46:19.952Z,53.00
2022-10-10T00:51:20.155Z,53.16
2022-10-10T00:56:21.227Z,53.73
2022-10-10T01:01:18.223Z,54.17
2022-10-10T01:06:16.265Z,54.62
2022-10-10T01:11:30.882Z,55.04
2022-10-10T01:16:34.315Z,55.19
2022-10-10T01:21:43.562Z,55.17
2022-10-10T01:27:15.792Z,55.33
2022-10-10T01:32:19.783Z,55.38
2022-10-10T01:37:19.711Z,55.29
2022-10-10T01:42:22.347Z,55.33
2022-10-10T01:47:24.606Z,55.32
2022-10-10T01:52:34.201Z,55.39
2022-10-10T01:57:46.831Z,55.51
2022-10-10T02:02:52.162Z,55.45
2022-10-10T02:07:50.666Z,55.74
2022-10-10T02:12:49.140Z,56.22
2022-10-10T02:17:49.068Z,56.21
2022-10-10T02:22:47.415Z,56.44
2022-10-10T02:27:50.635Z,56.22
2022-10-10T02:32:52.767Z,56.70
2022-10-10T02:37:54.316Z,56.55
2022-10-10T02:42:53.514Z,56.35
2022-10-10T02:47:51.889Z,56.49
2022-10-10T02:52:49.017Z,56.69
2022-10-10T02:57:46.468Z,56.12
2022-10-10T03:02:45.711Z,56.20
2022-10-10T03:07:43.536Z,56.15
2022-10-10T03:12:40.606Z,56.06
2022-10-10T03:17:37.456Z,55.77
2022-10-10T03:22:34.547Z,55.09
2022-10-10T03:27:32.467Z,54.89
2022-10-10T03:32:29.936Z,54.38
2022-10-10T03:37:27.334Z,54.23
2022-10-10T03:42:26.852Z,54.03
2022-10-10T03:47:24.504Z,53.91
2022-10-10T03:52:27.327Z,53.64
2022-10-10T03:57:25.105Z,53.33
2022-10-10T04:02:21.922Z,53.24
2022-10-10T04:07:19.782Z,52.62
2022-10-10T04:12:16.773Z,53.32
2022-10-10T04:17:22.587Z,53.42
2022-10-10T04:22:20.327Z,53.29
2022-10-10T04:27:17.542Z,53.19
2022-10-10T04:32:14.285Z,52.84
2022-10-10T04:37:11.346Z,52.93
2022-10-10T04:42:08.936Z,52.92
2022-10-10T04:47:06.782Z,53.09
2022-10-10T04:52:03.994Z,53.06
2022-10-10T04:57:18.261Z,52.81
2022-10-10T05:02:37.715Z,52.45
2022-10-10T05:07:38.075Z,51.75
2022-10-10T05:12:43.367Z,51.18
2022-10-10T05:17:47.859Z,50.54
2022-10-10T05:22:45.503Z,49.94
2022-10-10T05:27:45.130Z,49.39
2022-10-10T05:32:43.729Z,48.57
2022-10-10T05:37:43.916Z,48.06
2022-10-10T05:42:41.270Z,48.25
2022-10-10T05:47:38.546Z,48.57
2022-10-10T05:52:36.532Z,48.08
2022-10-10T05:57:33.679Z,47.68
2022-10-10T06:02:30.841Z,46.27
2022-10-10T06:07:45.885Z,45.36
2022-10-10T06:12:49.555Z,45.43
2022-10-10T06:17:47.133Z,45.29
2022-10-10T06:22:44.444Z,44.72
2022-10-10T06:27:44.324Z,44.96
2022-10-10T06:32:47.140Z,45.08
2022-10-10T06:37:44.660Z,44.73
2022-10-10T06:42:42.902Z,43.14
2022-10-10T06:47:42.990Z,43.26
2022-10-10T06:52:42.979Z,42.15
2022-10-10T06:57:41.916Z,42.46
2022-10-10T07:02:42.319Z,41.88
2022-10-10T07:07:42.669Z,42.34
2022-10-10T07:12:44.419Z,41.65
2022-10-10T07:17:44.757Z,40.88
2022-10-10T07:22:44.135Z,40.16
2022-10-10T07:27:41.480Z,37.66
2022-10-10T07:32:40.376Z,36.15
2022-10-10T07:37:41.893Z,33.32
2022-10-10T07:42:44.257Z,32.23
2022-10-10T07:47:41.599Z,31.63
2022-10-10T07:52:39.923Z,32.21
2022-10-10T07:57:37.647Z,32.00
2022-10-10T08:02:35.694Z,31.73
2022-10-10T08:07:32.639Z,32.06
2022-10-10T08:12:29.777Z,32.06
2022-10-10T08:17:27.315Z,32.18
2022-10-10T08:22:25.535Z,32.36
2022-10-10T08:27:27.523Z,32.39
2022-10-10T08:32:24.951Z,32.08
2022-10-10T08:37:27.229Z,31.43
2022-10-10T08:42:35.066Z,30.85
2022-10-10T08:47:39.411Z,31.01
2022-10-10T08:52:42.116Z,30.33
2022-10-10T08:57:50.242Z,30.71
2022-10-10T09:02:53.976Z,30.73
2022-10-10T09:08:12.760Z,30.86
2022-10-10T09:13:25.001Z,30.80
2022-10-10T09:18:40.576Z,31.00
2022-10-10T09:23:49.259Z,30.99
2022-10-10T09:28:55.736Z,31.14
2022-10-10T09:34:06.415Z,30.60
2022-10-10T09:39:13.331Z,30.28
2022-10-10T09:44:15.185Z,29.29
2022-10-10T09:49:15.382Z,28.62
2022-10-10T09:54:15.988Z,29.51
2022-10-10T09:59:37.233Z,29.47
2022-10-10T10:04:38.462Z,30.55
2022-10-10T10:09:37.223Z,31.71
2022-10-10T10:14:46.826Z,32.09
2022-10-10T10:19:46.450Z,31.68
2022-10-10T10:24:43.929Z,31.52
2022-10-10T10:29:47.502Z,31.12
2022-10-10T10:35:33.605Z,31.24
2022-10-10T10:40:38.722Z,30.86
2022-10-10T10:45:46.061Z,31.13
2022-10-10T10:50:54.105Z,31.05
2022-10-10T10:56:00.250Z,31.82
2022-10-10T11:01:27.887Z,31.83
2022-10-10T11:06:54.131Z,32.08
2022-10-10T11:12:12.776Z,32.40
2022-10-10T11:17:19.112Z,31.74
2022-10-10T11:22:19.318Z,32.27
2022-10-10T11:27:24.031Z,32.59
2022-10-10T11:32:30.547Z,31.21
2022-10-10T11:37:31.499Z,32.55
2022-10-10T11:42:35.569Z,32.60
2022-10-10T11:47:36.023Z,32.44
2022-10-10T11:52:50.014Z,32.87
2022-10-10T11:57:54.410Z,33.42
2022-10-10T12:02:56.929Z,33.56
2022-10-10T12:08:18.749Z,33.58
2022-10-10T12:13:34.089Z,33.69
2022-10-10T12:18:41.577Z,33.98
2022-10-10T12:23:42.426Z,33.76
2022-10-10T12:29:01.278Z,34.48
2022-10-10T12:34:11.383Z,33.58
2022-10-10T12:39:40.361Z,33.83
2022-10-10T12:44:49.511Z,34.06
2022-10-10T12:50:43.884Z,33.50
2022-10-10T12:55:44.187Z,33.17
2022-10-10T13:00:52.240Z,33.29
2022-10-10T13:05:51.687Z,33.38
2022-10-10T13:11:04.098Z,33.75
2022-10-10T13:16:08.323Z,33.80
2022-10-10T13:21:38.685Z,33.78
2022-10-10T13:26:40.473Z,34.49
2022-10-10T13:31:38.829Z,34.66
2022-10-10T13:36:42.686Z,35.08
2022-10-10T13:41:49.388Z,35.03
2022-10-10T13:52:38.693Z,35.26
2022-10-10T13:58:01.740Z,35.70
2022-10-10T14:03:39.073Z,36.19
2022-10-10T14:09:13.296Z,36.30
2022-10-10T14:14:28.376Z,36.76
2022-10-10T14:19:44.324Z,36.71
2022-10-10T14:24:50.822Z,36.99
2022-10-10T14:30:22.252Z,37.25
2022-10-10T14:35:59.978Z,37.29
2022-10-10T14:41:18.015Z,37.47
2022-10-10T14:47:12.219Z,38.25
2022-10-10T14:52:55.090Z,38.23
2022-10-10T15:04:21.162Z,38.76
2022-10-10T15:15:34.727Z,38.34
2022-10-10T15:20:39.454Z,38.73
2022-10-10T15:31:48.771Z,39.35
2022-10-10T15:38:36.524Z,39.60
2022-10-10T15:43:56.955Z,39.32
2022-10-10T15:55:05.633Z,39.70
2022-10-10T16:00:11.463Z,39.87
2022-10-10T16:05:13.169Z,39.93
2022-10-10T16:10:59.281Z,39.97
2022-10-10T16:16:24.518Z,40.60
2022-10-10T16:21:24.537Z,40.60
2022-10-10T16:27:13.434Z,40.65
2022-10-10T16:32:58.942Z,41.14
2022-10-10T16:38:19.296Z,41.24
2022-10-10T16:51:07.283Z,41.70
2022-10-10T16:56:20.229Z,41.97
2022-10-10T17:01:20.702Z,42.26
2022-10-10T17:06:25.185Z,42.41
2022-10-10T17:11:36.435Z,42.96
2022-10-10T17:17:11.542Z,43.32
2022-10-10T17:22:12.488Z,43.75
2022-10-10T17:28:47.120Z,44.10
2022-10-10T17:33:53.512Z,44.32
2022-10-10T17:39:26.075Z,44.14
2022-10-10T17:44:28.474Z,44.46
2022-10-10T17:49:46.329Z,44.40
2022-10-10T18:01:13.779Z,44.14
2022-10-10T18:06:24.128Z,44.27
2022-10-10T18:11:43.256Z,44.46
2022-10-10T18:17:20.083Z,44.17
2022-10-10T18:22:20.926Z,44.35
2022-10-10T18:27:21.260Z,44.18
2022-10-10T18:32:19.219Z,44.06
2022-10-10T18:37:18.160Z,44.08
2022-10-10T18:42:16.230Z,44.29
2022-10-10T18:47:18.597Z,44.53
2022-10-10T18:52:16.247Z,44.64
2022-10-10T18:57:26.112Z,44.69
2022-10-10T19:02:32.271Z,44.56
2022-10-10T19:07:38.320Z,44.58
2022-10-10T19:12:36.702Z,44.51
2022-10-10T19:17:41.465Z,44.53
2022-10-10T19:22:39.064Z,44.93
2022-10-10T19:27:38.572Z,45.20
2022-10-10T19:32:42.649Z,45.26
2022-10-10T19:37:53.808Z,45.35
2022-10-10T19:43:04.308Z,45.45
2022-10-10T19:48:01.758Z,45.58
2022-10-10T19:53:05.171Z,45.79
2022-10-10T19:58:03.404Z,46.18
2022-10-10T20:03:00.870Z,46.05
2022-10-10T20:07:58.164Z,46.23
2022-10-10T20:12:55.285Z,46.23
2022-10-10T20:17:54.458Z,46.33
2022-10-10T20:22:54.394Z,46.22
2022-10-10T20:27:52.912Z,46.42
2022-10-10T20:32:53.338Z,46.55
2022-10-10T20:37:52.633Z,46.31
2022-10-10T20:42:52.703Z,46.64
2022-10-10T20:47:50.050Z,46.99
2022-10-10T20:52:47.521Z,46.91
2022-10-10T20:57:45.696Z,47.16
2022-10-10T21:02:42.911Z,47.33
2022-10-10T21:07:42.230Z,47.60
2022-10-10T21:12:41.850Z,48.27
2022-10-10T21:17:39.794Z,48.38
2022-10-10T21:22:36.766Z,48.84
2022-10-10T21:27:52.191Z,48.91
2022-10-10T21:32:50.358Z,49.36
2022-10-10T21:37:54.373Z,49.74
2022-10-10T21:42:52.801Z,49.79
2022-10-10T21:53:08.529Z,50.10
2022-10-10T21:58:15.675Z,50.42
2022-10-10T22:03:13.921Z,50.52
2022-10-10T22:08:11.794Z,51.12
2022-10-10T22:13:19.645Z,51.75
2022-10-10T22:18:19.040Z,51.93
2022-10-10T22:23:23.378Z,52.32
2022-10-10T22:28:20.666Z,52.88
2022-10-10T22:33:18.456Z,53.16
2022-10-10T22:38:15.437Z,53.12
2022-10-10T22:43:12.430Z,53.08
2022-10-10T22:48:09.625Z,53.18
2022-10-10T22:53:25.287Z,53.79
2022-10-10T22:58:22.795Z,54.53
2022-10-10T23:03:20.853Z,55.14
2022-10-10T23:08:43.840Z,55.63
2022-10-10T23:13:42.853Z,55.63
2022-10-10T23:18:39.943Z,56.14
2022-10-10T23:23:39.299Z,56.79
2022-10-10T23:28:36.564Z,57.32
2022-10-10T23:33:59.000Z,57.72
2022-10-10T23:38:57.965Z,58.28
2022-10-10T23:43:55.229Z,58.44
2022-10-10T23:48:52.331Z,58.92
2022-10-10T23:53:49.676Z,59.29
2022-10-10T23:58:47.679Z,59.40
